createdAt,value
2016-11-13T09:20:26.982Z,102574
2016-11-13T09:20:42.095Z,102566
2016-11-13T09:20:57.521Z,102582
2016-11-13T09:21:10.114Z,102570
2016-11-13T09:21:25.467Z,102561
2016-11-13T09:21:40.766Z,102567
2016-11-13T09:21:59.104Z,102574
2016-11-13T09:22:14.291Z,102578
2016-11-13T09:22:29.662Z,102569
2016-11-13T09:22:45.162Z,102579
2016-11-13T09:22:57.515Z,102567
2016-11-13T09:23:12.819Z,102573
2016-11-13T09:23:28.129Z,102576
2016-11-13T09:23:43.502Z,102577
2016-11-13T09:23:58.713Z,102576
2016-11-13T09:24:16.976Z,102564
2016-11-13T09:24:35.220Z,102583
2016-11-13T09:24:56.410Z,102571
2016-11-13T09:25:08.985Z,102568
2016-11-13T09:25:24.466Z,102556
2016-11-13T09:25:39.815Z,102577
2016-11-13T09:25:52.417Z,102574
2016-11-13T09:26:07.515Z,102571
2016-11-13T09:26:25.685Z,102574
2016-11-13T09:26:43.895Z,102556
2016-11-13T09:27:02.251Z,102562
2016-11-13T09:27:23.307Z,102572
2016-11-13T09:27:41.681Z,102566
2016-11-13T09:27:54.010Z,102560
2016-11-13T09:28:09.262Z,102560
2016-11-13T09:28:21.799Z,102560
2016-11-13T09:28:40.148Z,102572
2016-11-13T09:29:01.262Z,102566
2016-11-13T09:29:16.657Z,102569
2016-11-13T09:29:32.052Z,102566
2016-11-13T09:29:53.115Z,102572
2016-11-13T09:30:14.430Z,102560
2016-11-13T09:30:29.878Z,102566
2016-11-13T09:30:42.277Z,102570
2016-11-13T09:30:54.937Z,102557
2016-11-13T09:31:13.253Z,102570
2016-11-13T09:31:28.773Z,102573
2016-11-13T09:31:44.225Z,102576
2016-11-13T09:31:59.662Z,102564
2016-11-13T09:32:15.081Z,102555
2016-11-13T09:32:30.447Z,102570
2016-11-13T09:32:43.027Z,102561
2016-11-13T09:32:58.283Z,102567
2016-11-13T09:33:13.727Z,102577
2016-11-13T09:33:31.991Z,102571
2016-11-13T09:33:53.062Z,102561
2016-11-13T09:34:08.347Z,102571
2016-11-13T09:34:21.006Z,102580
2016-11-13T09:34:33.437Z,102571
2016-11-13T09:34:54.588Z,102565
2016-11-13T09:35:15.662Z,102571
2016-11-13T09:35:31.042Z,102568
2016-11-13T09:35:43.542Z,102568
2016-11-13T09:35:59.089Z,102575
2016-11-13T09:36:14.447Z,102569
2016-11-13T09:36:26.982Z,102566
2016-11-13T09:36:42.462Z,102569
2016-11-13T09:36:57.787Z,102578
2016-11-13T09:37:10.253Z,102569
2016-11-13T09:37:22.685Z,102575
2016-11-13T09:37:38.200Z,102578
2016-11-13T09:37:56.407Z,102563
2016-11-13T09:38:11.885Z,102566
2016-11-13T09:38:27.167Z,102573
2016-11-13T09:38:48.126Z,102561
2016-11-13T09:39:03.550Z,102579
2016-11-13T09:39:18.877Z,102570
2016-11-13T09:39:34.508Z,102576
2016-11-13T09:39:52.911Z,102576
2016-11-13T09:40:11.162Z,102570
2016-11-13T09:40:26.459Z,102574
2016-11-13T09:40:38.925Z,102562
2016-11-13T09:40:54.355Z,102574
2016-11-13T09:41:09.523Z,102568
2016-11-13T09:41:22.214Z,102577
2016-11-13T09:41:34.667Z,102565
2016-11-13T09:41:46.984Z,102577
2016-11-13T09:42:02.415Z,102583
2016-11-13T09:42:17.955Z,102568
2016-11-13T09:42:39.025Z,102568
2016-11-13T09:42:54.382Z,102571
2016-11-13T09:43:09.635Z,102565
2016-11-13T09:43:24.891Z,102572
2016-11-13T09:43:40.390Z,102566
2016-11-13T09:43:53.065Z,102566
2016-11-13T09:44:05.447Z,102575
2016-11-13T09:44:23.840Z,102572
2016-11-13T09:44:41.980Z,102578
2016-11-13T09:45:03.027Z,102569
2016-11-13T09:45:22.618Z,102575
2016-11-13T09:45:38.053Z,102569
2016-11-13T09:45:53.439Z,102594
2016-11-13T09:46:05.884Z,102563
2016-11-13T09:46:23.987Z,102576
2016-11-13T09:46:39.270Z,102573
2016-11-13T09:46:54.699Z,102570
2016-11-13T09:47:13.071Z,102576
2016-11-13T09:47:28.350Z,102570
2016-11-13T09:47:43.898Z,102576
2016-11-13T09:47:59.072Z,102579
2016-11-13T09:48:14.394Z,102576
2016-11-13T09:48:32.523Z,102579
2016-11-13T09:48:47.978Z,102589
2016-11-13T09:49:03.349Z,102582
2016-11-13T09:49:15.678Z,102573
2016-11-13T09:49:33.994Z,102576
2016-11-13T09:49:49.329Z,102571
2016-11-13T09:50:04.717Z,102583
2016-11-13T09:50:25.994Z,102577
2016-11-13T09:50:38.522Z,102589
2016-11-13T09:50:53.832Z,102586
2016-11-13T09:51:06.444Z,102583
2016-11-13T09:51:24.581Z,102589
2016-11-13T09:51:45.835Z,102586
2016-11-13T09:52:01.276Z,102590
2016-11-13T09:52:16.614Z,102580
2016-11-13T09:52:29.043Z,102590
2016-11-13T09:52:44.399Z,102596
2016-11-13T09:52:56.865Z,102587
2016-11-13T09:53:12.217Z,102584
2016-11-13T09:53:24.802Z,102578
2016-11-13T09:53:37.141Z,102593
2016-11-13T09:53:52.430Z,102578
2016-11-13T09:54:07.814Z,102587
2016-11-13T09:54:20.347Z,102581
2016-11-13T09:54:38.477Z,102581
2016-11-13T09:54:53.943Z,102569
2016-11-13T09:55:09.803Z,102575
2016-11-13T09:55:22.278Z,102575
2016-11-13T09:55:38.338Z,102581
2016-11-13T09:55:53.656Z,102578
2016-11-13T09:56:08.982Z,102582
2016-11-13T09:57:13.582Z,102579
2016-11-13T09:57:28.795Z,102583
2016-11-13T09:57:44.334Z,102586
2016-11-13T09:57:59.741Z,102577
2016-11-13T09:58:15.320Z,102586
2016-11-13T09:58:27.846Z,102577
2016-11-13T09:58:46.173Z,102596
2016-11-13T09:59:04.363Z,102581
2016-11-13T09:59:16.899Z,102593
2016-11-13T09:59:35.191Z,102590
2016-11-13T09:59:50.400Z,102590
2016-11-13T10:00:02.943Z,102584
2016-11-13T10:00:15.340Z,102575
2016-11-13T10:00:33.744Z,102578
2016-11-13T10:00:51.934Z,102584
2016-11-13T10:01:10.324Z,102578
2016-11-13T10:01:25.695Z,102594
2016-11-13T10:01:43.992Z,102575
2016-11-13T10:01:56.407Z,102591
2016-11-13T10:02:11.841Z,102582
2016-11-13T10:02:27.144Z,102575
2016-11-13T10:02:45.208Z,102573
2016-11-13T10:03:06.420Z,102582
2016-11-13T10:03:18.982Z,102579
2016-11-13T10:03:40.305Z,102582
2016-11-13T10:03:52.816Z,102561
2016-11-13T10:04:11.091Z,102582
2016-11-13T10:04:26.419Z,102576
2016-11-13T10:04:38.992Z,102576
2016-11-13T10:04:54.451Z,102573
2016-11-13T10:05:12.708Z,102580
2016-11-13T10:05:33.969Z,102580
2016-11-13T10:05:52.202Z,102583
2016-11-13T10:06:04.612Z,102577
2016-11-13T10:06:20.039Z,102567
2016-11-13T10:06:35.304Z,102583
2016-11-13T10:06:47.883Z,102580
2016-11-13T10:07:00.499Z,102577
2016-11-13T10:07:12.950Z,102586
2016-11-13T10:07:28.094Z,102583
2016-11-13T10:07:43.513Z,102586
2016-11-13T10:07:56.025Z,102592
2016-11-13T10:08:11.523Z,102590
2016-11-13T10:08:27.067Z,102577
2016-11-13T10:08:39.562Z,102590
2016-11-13T10:08:52.006Z,102583
2016-11-13T10:09:10.279Z,102577
2016-11-13T10:09:22.890Z,102568
2016-11-13T10:09:41.095Z,102583
2016-11-13T10:09:59.323Z,102587
2016-11-13T10:10:17.454Z,102584
2016-11-13T10:10:29.845Z,102587
2016-11-13T10:10:42.379Z,102584
2016-11-13T10:10:54.997Z,102584
2016-11-13T10:11:07.556Z,102568
2016-11-13T10:11:22.897Z,102584
2016-11-13T10:11:38.291Z,102578
2016-11-13T10:11:53.650Z,102575
2016-11-13T10:12:09.031Z,102575
2016-11-13T10:12:27.384Z,102587
2016-11-13T10:12:45.482Z,102594
2016-11-13T10:13:00.700Z,102591
2016-11-13T10:13:16.031Z,102588
2016-11-13T10:13:31.163Z,102588
2016-11-13T10:13:46.666Z,102588
2016-11-13T10:13:59.358Z,102591
2016-11-13T10:14:20.397Z,102575
2016-11-13T10:14:35.771Z,102581
2016-11-13T10:15:00.587Z,102584
2016-11-13T10:15:19.557Z,102578
2016-11-13T10:15:37.932Z,102575
2016-11-13T10:15:56.193Z,102584
2016-11-13T10:16:08.687Z,102591
2016-11-13T10:16:26.798Z,102569
2016-11-13T10:16:42.353Z,102575
2016-11-13T10:17:00.522Z,102591
2016-11-13T10:17:15.968Z,102582
2016-11-13T10:17:31.393Z,102575
2016-11-13T10:17:43.793Z,102582
2016-11-13T10:17:59.089Z,102579
2016-11-13T10:18:11.692Z,102579
2016-11-13T10:18:29.873Z,102579
2016-11-13T10:18:42.405Z,102573
2016-11-13T10:18:57.891Z,102579
2016-11-13T10:19:10.343Z,102585
2016-11-13T10:19:22.782Z,102573
2016-11-13T10:19:35.467Z,102576
2016-11-13T10:19:50.790Z,102564
2016-11-13T10:20:06.020Z,102582
2016-11-13T10:20:21.321Z,102570
2016-11-13T10:20:33.823Z,102573
2016-11-13T10:20:49.130Z,102577
2016-11-13T10:21:04.579Z,102574
2016-11-13T10:21:20.035Z,102580
2016-11-13T10:21:38.321Z,102583
2016-11-13T10:21:53.775Z,102580
2016-11-13T10:22:09.052Z,102586
2016-11-13T10:22:30.256Z,102577
2016-11-13T10:22:48.738Z,102568
2016-11-13T10:23:04.151Z,102571
2016-11-13T10:23:22.218Z,102577
2016-11-13T10:23:40.508Z,102580
2016-11-13T10:23:52.969Z,102587
2016-11-13T10:24:08.322Z,102590
2016-11-13T10:24:23.707Z,102568
2016-11-13T10:24:36.336Z,102574
2016-11-13T10:24:54.611Z,102584
2016-11-13T10:25:07.210Z,102578
2016-11-13T10:25:19.670Z,102578
2016-11-13T10:25:35.081Z,102578
2016-11-13T10:25:53.399Z,102578
2016-11-13T10:26:08.785Z,102578
2016-11-13T10:26:24.233Z,102581
2016-11-13T10:26:39.564Z,102578
2016-11-13T10:26:54.934Z,102563
2016-11-13T10:27:15.527Z,102572
2016-11-13T10:27:33.603Z,102563
2016-11-13T10:27:49.096Z,102570
2016-11-13T10:28:05.973Z,102573
2016-11-13T10:28:21.181Z,102564
2016-11-13T10:28:33.864Z,102579
2016-11-13T10:28:49.156Z,102561
2016-11-13T10:29:10.409Z,102577
2016-11-13T10:29:22.867Z,102564
2016-11-13T10:29:44.017Z,102571
2016-11-13T10:30:11.276Z,102556
2016-11-13T10:30:26.552Z,102562
2016-11-13T10:30:42.256Z,102568
2016-11-13T10:30:54.809Z,102568
2016-11-13T10:31:15.019Z,102565
2016-11-13T10:31:27.616Z,102565
2016-11-13T10:31:45.973Z,102569
2016-11-13T10:32:01.428Z,102559
2016-11-13T10:32:14.258Z,102566
2016-11-13T10:32:32.965Z,102566
2016-11-13T10:32:55.291Z,102566
2016-11-13T10:33:08.491Z,102566
2016-11-13T10:33:25.184Z,102566
2016-11-13T10:33:40.875Z,102550
2016-11-13T10:33:53.591Z,102572
2016-11-13T10:34:10.088Z,102563
2016-11-13T10:34:25.565Z,102578
2016-11-13T10:34:44.386Z,102569
2016-11-13T10:35:00.614Z,102572
2016-11-13T10:35:19.358Z,102566
2016-11-13T10:35:34.784Z,102560
2016-11-13T10:35:48.647Z,102557
2016-11-13T10:36:07.914Z,102566
2016-11-13T10:36:27.384Z,102560
2016-11-13T10:36:52.194Z,102560
2016-11-13T10:37:12.494Z,102566
2016-11-13T10:37:28.259Z,102557
2016-11-13T10:37:44.491Z,102563
2016-11-13T10:38:01.436Z,102563
2016-11-13T10:38:18.833Z,102576
2016-11-13T10:38:32.013Z,102560
2016-11-13T10:38:47.646Z,102573
2016-11-13T10:39:03.635Z,102570
2016-11-13T10:39:21.994Z,102560
2016-11-13T10:39:40.725Z,102567
2016-11-13T10:39:53.370Z,102573
2016-11-13T10:40:11.672Z,102570
2016-11-13T10:40:26.993Z,102570
2016-11-13T10:40:45.126Z,102576
2016-11-13T10:41:03.545Z,102548
2016-11-13T10:41:15.975Z,102570
2016-11-13T10:41:28.575Z,102564
2016-11-13T10:41:43.940Z,102564
2016-11-13T10:42:02.109Z,102570
2016-11-13T10:42:20.229Z,102567
2016-11-13T10:42:35.741Z,102567
2016-11-13T10:42:48.118Z,102561
2016-11-13T10:43:00.642Z,102570
2016-11-13T10:43:12.986Z,102561
2016-11-13T10:43:31.248Z,102567
2016-11-13T10:43:46.574Z,102554
2016-11-13T10:44:06.806Z,102573
2016-11-13T10:44:24.897Z,102573
2016-11-13T10:44:43.230Z,102560
2016-11-13T10:44:57.050Z,102563
2016-11-13T10:45:19.049Z,102567
2016-11-13T10:45:43.025Z,102573
2016-11-13T10:45:58.483Z,102560
2016-11-13T10:46:11.588Z,102563
2016-11-13T10:46:29.665Z,102573
2016-11-13T10:46:48.058Z,102582
2016-11-13T10:47:09.251Z,102570
2016-11-13T10:47:28.080Z,102570
2016-11-13T10:47:43.791Z,102573
2016-11-13T10:47:59.703Z,102564
2016-11-13T10:48:17.995Z,102555
2016-11-13T10:48:33.542Z,102561
2016-11-13T10:48:51.822Z,102558
2016-11-13T10:49:07.310Z,102555
2016-11-13T10:49:28.645Z,102576
2016-11-13T10:49:44.029Z,102570
2016-11-13T10:49:56.829Z,102573
2016-11-13T10:50:15.266Z,102567
2016-11-13T10:50:30.571Z,102576
2016-11-13T10:50:51.641Z,102552
2016-11-13T10:51:07.043Z,102567
2016-11-13T10:51:25.656Z,102561
2016-11-13T10:51:38.304Z,102564
2016-11-13T10:51:59.627Z,102576
2016-11-13T10:52:17.994Z,102555
2016-11-13T10:52:36.325Z,102567
2016-11-13T10:52:51.910Z,102558
2016-11-13T10:53:04.394Z,102567
2016-11-13T10:53:22.830Z,102567
2016-11-13T10:53:38.513Z,102564
2016-11-13T10:53:59.748Z,102567
2016-11-13T10:54:12.195Z,102558
2016-11-13T10:54:24.866Z,102567
2016-11-13T10:54:43.388Z,102567
2016-11-13T10:54:55.936Z,102561
2016-11-13T10:55:11.287Z,102561
2016-11-13T10:55:26.781Z,102558
2016-11-13T10:55:45.117Z,102561
2016-11-13T10:55:57.884Z,102561
2016-11-13T10:56:10.396Z,102564
2016-11-13T10:56:25.738Z,102552
2016-11-13T10:56:44.032Z,102558
2016-11-13T10:56:59.502Z,102552
2016-11-13T10:57:15.083Z,102549
2016-11-13T10:57:30.607Z,102555
2016-11-13T10:57:48.867Z,102552
2016-11-13T10:58:04.390Z,102555
2016-11-13T10:58:16.896Z,102561
2016-11-13T10:58:32.386Z,102558
2016-11-13T10:58:45.212Z,102558
2016-11-13T10:59:03.492Z,102543
2016-11-13T10:59:24.688Z,102555
2016-11-13T10:59:37.325Z,102555
2016-11-13T10:59:55.704Z,102568
2016-11-13T11:00:14.128Z,102558
2016-11-13T11:00:29.636Z,102565
2016-11-13T11:00:45.103Z,102571
2016-11-13T11:00:57.615Z,102565
2016-11-13T11:01:13.199Z,102565
2016-11-13T11:01:31.720Z,102565
2016-11-13T11:01:50.207Z,102562
2016-11-13T11:02:05.597Z,102559
2016-11-13T11:02:21.018Z,102549
2016-11-13T11:02:42.209Z,102556
2016-11-13T11:02:54.881Z,102562
2016-11-13T11:03:19.229Z,102565
2016-11-13T11:03:37.492Z,102562
2016-11-13T11:03:50.054Z,102559
2016-11-13T11:04:08.470Z,102559
2016-11-13T11:04:26.764Z,102562
2016-11-13T11:04:45.125Z,102568
2016-11-13T11:05:00.594Z,102553
2016-11-13T11:05:16.007Z,102562
2016-11-13T11:05:31.424Z,102565
2016-11-13T11:05:46.951Z,102571
2016-11-13T11:06:05.324Z,102568
2016-11-13T11:06:24.029Z,102562
2016-11-13T11:06:39.644Z,102565
2016-11-13T11:06:55.080Z,102565
2016-11-13T11:07:07.576Z,102559
2016-11-13T11:07:22.965Z,102565
2016-11-13T11:07:38.313Z,102562
2016-11-13T11:07:53.875Z,102575
2016-11-13T11:08:06.399Z,102553
2016-11-13T11:08:24.500Z,102559
2016-11-13T11:08:42.815Z,102556
2016-11-13T11:09:01.446Z,102572
2016-11-13T11:09:16.895Z,102547
2016-11-13T11:09:32.341Z,102560
2016-11-13T11:09:47.849Z,102566
2016-11-13T11:10:00.400Z,102560
2016-11-13T11:10:18.678Z,102566
2016-11-13T11:10:37.173Z,102556
2016-11-13T11:10:52.634Z,102560
2016-11-13T11:11:08.143Z,102553
2016-11-13T11:11:20.686Z,102563
2016-11-13T11:11:36.058Z,102572
2016-11-13T11:11:51.636Z,102566
2016-11-13T11:12:04.457Z,102563
2016-11-13T11:12:22.770Z,102550
2016-11-13T11:12:35.427Z,102557
2016-11-13T11:12:53.705Z,102563
2016-11-13T11:13:12.008Z,102554
2016-11-13T11:13:27.455Z,102563
2016-11-13T11:13:42.966Z,102563
2016-11-13T11:13:55.609Z,102566
2016-11-13T11:14:11.093Z,102548
2016-11-13T11:14:23.595Z,102551
2016-11-13T11:14:42.170Z,102566
2016-11-13T11:14:57.685Z,102569
2016-11-13T11:15:16.238Z,102566
2016-11-13T11:15:34.758Z,102566
2016-11-13T11:15:56.111Z,102554
2016-11-13T11:16:11.718Z,102557
2016-11-13T11:16:27.053Z,102545
2016-11-13T11:16:45.380Z,102563
2016-11-13T11:16:58.157Z,102554
2016-11-13T11:17:13.585Z,102554
2016-11-13T11:17:33.103Z,102564
2016-11-13T11:17:48.564Z,102557
2016-11-13T11:18:01.131Z,102548
2016-11-13T11:18:19.423Z,102548
2016-11-13T11:18:35.000Z,102551
2016-11-13T11:18:50.567Z,102554
2016-11-13T11:19:11.761Z,102545
2016-11-13T11:19:24.456Z,102545
2016-11-13T11:19:39.924Z,102558
2016-11-13T11:19:52.615Z,102564
2016-11-13T11:20:05.233Z,102552
2016-11-13T11:20:17.941Z,102552
2016-11-13T11:20:36.307Z,102546
2016-11-13T11:20:54.505Z,102555
2016-11-13T11:21:10.080Z,102543
2016-11-13T11:21:25.458Z,102552
2016-11-13T11:21:38.172Z,102549
2016-11-13T11:21:59.532Z,102546
2016-11-13T11:22:17.760Z,102549
2016-11-13T11:22:35.938Z,102543
2016-11-13T11:22:51.535Z,102543
2016-11-13T11:23:06.997Z,102537
2016-11-13T11:23:22.740Z,102543
2016-11-13T11:23:35.400Z,102549
2016-11-13T11:23:51.053Z,102549
2016-11-13T11:24:03.503Z,102552
2016-11-13T11:24:18.874Z,102543
2016-11-13T11:24:34.370Z,102540
2016-11-13T11:24:55.631Z,102543
2016-11-13T11:25:14.078Z,102546
2016-11-13T11:25:26.642Z,102537
2016-11-13T11:25:42.100Z,102549
2016-11-13T11:25:57.605Z,102540
2016-11-13T11:26:13.181Z,102534
2016-11-13T11:26:25.713Z,102540
2016-11-13T11:26:38.278Z,102543
2016-11-13T11:26:53.810Z,102537
2016-11-13T11:27:09.422Z,102543
2016-11-13T11:27:24.828Z,102562
2016-11-13T11:27:43.017Z,102540
2016-11-13T11:28:01.394Z,102544
2016-11-13T11:28:16.770Z,102537
2016-11-13T11:28:35.188Z,102550
2016-11-13T11:28:50.671Z,102544
2016-11-13T11:29:09.064Z,102547
2016-11-13T11:29:27.306Z,102547
2016-11-13T11:29:45.701Z,102541
2016-11-13T11:30:04.152Z,102541
2016-11-13T11:30:22.528Z,102541
2016-11-13T11:30:35.070Z,102535
2016-11-13T11:30:50.455Z,102528
2016-11-13T11:31:08.708Z,102538
2016-11-13T11:31:27.014Z,102550
2016-11-13T11:31:39.611Z,102541
2016-11-13T11:31:55.338Z,102535
2016-11-13T11:32:10.618Z,102541
2016-11-13T11:32:23.122Z,102535
2016-11-13T11:32:38.498Z,102541
2016-11-13T11:32:53.936Z,102522
2016-11-13T11:33:09.329Z,102535
2016-11-13T11:33:30.488Z,102538
2016-11-13T11:33:46.048Z,102535
2016-11-13T11:34:01.337Z,102544
2016-11-13T11:34:16.697Z,102544
2016-11-13T11:34:29.135Z,102535
2016-11-13T11:34:47.393Z,102544
2016-11-13T11:35:02.898Z,102550
2016-11-13T11:35:18.391Z,102535
2016-11-13T11:35:39.678Z,102538
2016-11-13T11:35:55.225Z,102535
2016-11-13T11:36:13.453Z,102529
2016-11-13T11:36:28.932Z,102547
2016-11-13T11:36:44.492Z,102547
2016-11-13T11:37:02.949Z,102532
2016-11-13T11:37:15.378Z,102532
2016-11-13T11:37:27.851Z,102529
2016-11-13T11:37:40.303Z,102541
2016-11-13T11:38:01.660Z,102547
2016-11-13T11:38:16.912Z,102541
2016-11-13T11:38:29.576Z,102535
2016-11-13T11:38:47.785Z,102522
2016-11-13T11:39:03.317Z,102541
2016-11-13T11:39:21.633Z,102535
2016-11-13T11:39:40.127Z,102526
2016-11-13T11:39:58.405Z,102541
2016-11-13T11:40:13.919Z,102538
2016-11-13T11:40:35.525Z,102548
2016-11-13T11:40:51.307Z,102542
2016-11-13T11:41:15.422Z,102536
2016-11-13T11:41:30.980Z,102539
2016-11-13T11:41:43.576Z,102545
2016-11-13T11:42:01.984Z,102542
2016-11-13T11:42:17.451Z,102539
2016-11-13T11:42:30.108Z,102530
2016-11-13T11:42:48.258Z,102536
2016-11-13T11:43:03.820Z,102533
2016-11-13T11:43:19.325Z,102530
2016-11-13T11:43:34.831Z,102533
2016-11-13T11:43:53.165Z,102536
2016-11-13T11:44:11.346Z,102529
2016-11-13T11:44:26.850Z,102542
2016-11-13T11:44:45.222Z,102539
2016-11-13T11:45:06.416Z,102529
2016-11-13T11:45:25.695Z,102520
2016-11-13T11:45:41.240Z,102541
2016-11-13T11:45:56.623Z,102544
2016-11-13T11:46:17.956Z,102526
2016-11-13T11:46:30.578Z,102529
2016-11-13T11:46:51.693Z,102526
2016-11-13T11:47:09.856Z,102526
2016-11-13T11:47:28.654Z,102532
2016-11-13T11:47:46.874Z,102538
2016-11-13T11:47:59.492Z,102535
2016-11-13T11:48:27.593Z,102532
2016-11-13T11:48:50.093Z,102532
2016-11-13T11:49:08.319Z,102545
2016-11-13T11:49:26.750Z,102536
2016-11-13T11:49:48.214Z,102542
2016-11-13T11:50:12.509Z,102526
2016-11-13T11:50:30.894Z,102536
2016-11-13T11:50:43.397Z,102548
2016-11-13T11:51:02.434Z,102542
2016-11-13T11:51:25.475Z,102533
2016-11-13T11:51:41.874Z,102530
2016-11-13T11:51:57.440Z,102533
2016-11-13T11:52:17.917Z,102542
2016-11-13T11:52:39.523Z,102536
2016-11-13T11:52:58.596Z,102533
2016-11-13T11:53:14.552Z,102530
2016-11-13T11:53:35.890Z,102536
2016-11-13T11:53:57.124Z,102530
2016-11-13T11:54:15.640Z,102533
2016-11-13T11:54:34.089Z,102527
2016-11-13T11:54:49.455Z,102539
2016-11-13T11:55:07.829Z,102539
2016-11-13T11:55:23.418Z,102542
2016-11-13T11:55:41.757Z,102540
2016-11-13T11:56:02.395Z,102537
2016-11-13T11:56:14.921Z,102537
2016-11-13T11:56:30.358Z,102536
2016-11-13T11:56:48.629Z,102537
2016-11-13T11:57:04.001Z,102537
2016-11-13T11:57:19.544Z,102540
2016-11-13T11:57:38.599Z,102530
2016-11-13T11:57:56.953Z,102543
2016-11-13T11:58:15.434Z,102527
2016-11-13T11:58:30.776Z,102543
2016-11-13T11:58:51.861Z,102525
2016-11-13T11:59:10.337Z,102525
2016-11-13T11:59:25.769Z,102543
2016-11-13T11:59:47.095Z,102534
2016-11-13T12:00:05.550Z,102540
2016-11-13T12:00:21.037Z,102531
2016-11-13T12:00:42.164Z,102534
2016-11-13T12:01:03.249Z,102537
2016-11-13T12:01:21.504Z,102547
2016-11-13T12:01:34.124Z,102534
2016-11-13T12:01:52.597Z,102525
2016-11-13T12:02:16.862Z,102528
2016-11-13T12:02:38.611Z,102525
2016-11-13T12:02:54.251Z,102538
2016-11-13T12:03:12.616Z,102538
2016-11-13T12:03:27.942Z,102541
2016-11-13T12:03:43.433Z,102535
2016-11-13T12:04:07.563Z,102535
2016-11-13T12:04:25.983Z,102525
2016-11-13T12:04:45.187Z,102525
2016-11-13T12:05:03.817Z,102535
2016-11-13T12:05:25.200Z,102538
2016-11-13T12:05:37.747Z,102532
2016-11-13T12:05:56.154Z,102526
2016-11-13T12:06:11.573Z,102547
2016-11-13T12:06:27.055Z,102529
2016-11-13T12:06:39.669Z,102523
2016-11-13T12:06:55.027Z,102538
2016-11-13T12:07:13.482Z,102532
2016-11-13T12:07:31.612Z,102523
2016-11-13T12:07:46.987Z,102535
2016-11-13T12:08:05.339Z,102532
2016-11-13T12:08:23.786Z,102542
2016-11-13T12:08:42.589Z,102529
2016-11-13T12:08:59.045Z,102535
2016-11-13T12:09:12.783Z,102529
2016-11-13T12:09:31.036Z,102529
2016-11-13T12:09:47.762Z,102538
2016-11-13T12:10:03.223Z,102526
2016-11-13T12:10:21.493Z,102545
2016-11-13T12:10:39.991Z,102536
2016-11-13T12:11:08.555Z,102526
2016-11-13T12:11:33.581Z,102526
2016-11-13T12:11:49.891Z,102542
2016-11-13T12:12:05.298Z,102526
2016-11-13T12:12:17.764Z,102539
2016-11-13T12:12:33.182Z,102530
2016-11-13T12:12:51.370Z,102533
2016-11-13T12:13:06.825Z,102542
2016-11-13T12:13:26.640Z,102521
2016-11-13T12:13:51.732Z,102545
2016-11-13T12:14:05.380Z,102545
2016-11-13T12:14:27.394Z,102539
2016-11-13T12:14:42.462Z,102516
2016-11-13T12:15:09.159Z,102524
2016-11-13T12:15:22.098Z,102539
2016-11-13T12:15:37.512Z,102536
2016-11-13T12:15:55.755Z,102524
2016-11-13T12:16:11.166Z,102539
2016-11-13T12:16:27.708Z,102533
2016-11-13T12:16:47.613Z,102536
2016-11-13T12:17:07.435Z,102536
2016-11-13T12:17:26.755Z,102530
2016-11-13T12:17:44.931Z,102527
2016-11-13T12:17:57.327Z,102527
2016-11-13T12:18:15.577Z,102530
2016-11-13T12:18:28.102Z,102530
2016-11-13T12:18:46.375Z,102533
2016-11-13T12:19:01.818Z,102539
2016-11-13T12:19:17.131Z,102533
2016-11-13T12:19:32.341Z,102539
2016-11-13T12:19:53.670Z,102536
2016-11-13T12:20:11.871Z,102530
2016-11-13T12:20:30.223Z,102539
2016-11-13T12:20:45.611Z,102527
2016-11-13T12:20:58.058Z,102533
2016-11-13T12:21:19.106Z,102519
2016-11-13T12:21:34.576Z,102527
2016-11-13T12:21:49.885Z,102524
2016-11-13T12:22:08.331Z,102530
2016-11-13T12:22:23.789Z,102530
2016-11-13T12:22:39.198Z,102524
2016-11-13T12:23:00.362Z,102524
2016-11-13T12:23:15.768Z,102519
2016-11-13T12:23:31.059Z,102527
2016-11-13T12:23:49.443Z,102527
2016-11-13T12:24:04.864Z,102537
2016-11-13T12:24:23.118Z,102527
2016-11-13T12:24:41.519Z,102519
2016-11-13T12:25:02.628Z,102531
2016-11-13T12:25:20.799Z,102521
2016-11-13T12:25:36.339Z,102534
2016-11-13T12:25:48.687Z,102525
2016-11-13T12:26:04.067Z,102525
2016-11-13T12:26:22.776Z,102520
2016-11-13T12:26:39.610Z,102522
2016-11-13T12:26:55.133Z,102528
2016-11-13T12:27:10.749Z,102520
2016-11-13T12:27:28.914Z,102531
2016-11-13T12:27:53.113Z,102522
2016-11-13T12:28:08.915Z,102522
2016-11-13T12:28:27.143Z,102525
2016-11-13T12:28:45.811Z,102535
2016-11-13T12:29:01.293Z,102532
2016-11-13T12:29:16.632Z,102532
2016-11-13T12:29:32.078Z,102538
2016-11-13T12:29:47.590Z,102522
2016-11-13T12:30:03.396Z,102514
2016-11-13T12:30:22.113Z,102523
2016-11-13T12:30:40.753Z,102529
2016-11-13T12:30:53.371Z,102511
2016-11-13T12:31:08.742Z,102517
2016-11-13T12:31:24.604Z,102517
2016-11-13T12:31:39.873Z,102523
2016-11-13T12:31:55.276Z,102523
2016-11-13T12:32:14.177Z,102518
2016-11-13T12:32:29.597Z,102523
2016-11-13T12:32:46.385Z,102512
2016-11-13T12:33:02.306Z,102526
2016-11-13T12:33:21.286Z,102523
2016-11-13T12:33:44.064Z,102523
2016-11-13T12:34:03.711Z,102518
2016-11-13T12:34:24.408Z,102518
2016-11-13T12:34:39.734Z,102520
2016-11-13T12:34:55.147Z,102530
2016-11-13T12:35:16.295Z,102518
2016-11-13T12:35:34.842Z,102524
2016-11-13T12:35:54.709Z,102524
2016-11-13T12:36:07.692Z,102530
2016-11-13T12:36:20.225Z,102516
2016-11-13T12:36:42.252Z,102519
2016-11-13T12:36:57.663Z,102521
2016-11-13T12:37:13.034Z,102527
2016-11-13T12:37:31.343Z,102524
2016-11-13T12:37:49.770Z,102524
2016-11-13T12:38:07.873Z,102512
2016-11-13T12:38:23.508Z,102524
2016-11-13T12:38:38.550Z,102530
2016-11-13T12:38:51.056Z,102521
2016-11-13T12:39:09.441Z,102515
2016-11-13T12:39:22.072Z,102527
2016-11-13T12:39:40.432Z,102518
2016-11-13T12:39:55.975Z,102536
2016-11-13T12:40:11.340Z,102530
2016-11-13T12:40:23.666Z,102520
2016-11-13T12:40:45.007Z,102520
2016-11-13T12:41:00.513Z,102518
2016-11-13T12:41:18.899Z,102523
2016-11-13T12:41:40.091Z,102536
2016-11-13T12:42:01.418Z,102542
2016-11-13T12:42:16.700Z,102536
2016-11-13T12:42:34.971Z,102526
2016-11-13T12:42:50.404Z,102515
2016-11-13T12:43:05.866Z,102515
2016-11-13T12:43:24.133Z,102529
2016-11-13T12:43:36.506Z,102515
2016-11-13T12:43:51.800Z,102523
2016-11-13T12:44:07.357Z,102541
2016-11-13T12:44:19.805Z,102520
2016-11-13T12:44:35.188Z,102526
2016-11-13T12:44:47.715Z,102523
2016-11-13T12:45:03.780Z,102520
2016-11-13T12:45:22.723Z,102523
2016-11-13T12:45:35.433Z,102514
2016-11-13T12:45:47.892Z,102529
2016-11-13T12:46:00.247Z,102518
2016-11-13T12:46:15.595Z,102502